createdAt,value
2018-08-31T00:01:29.466Z,99.90
2018-08-31T00:04:39.107Z,99.90
2018-08-31T00:07:24.417Z,99.90
2018-08-31T00:12:06.850Z,99.90
2018-08-31T00:14:35.332Z,99.90
2018-08-31T00:17:03.822Z,99.90
2018-08-31T00:19:32.358Z,99.90
2018-08-31T00:22:00.871Z,99.90
2018-08-31T00:24:40.332Z,99.90
2018-08-31T00:27:19.879Z,99.90
2018-08-31T00:29:59.341Z,99.90
2018-08-31T00:33:08.752Z,99.90
2018-08-31T00:36:04.424Z,99.90
2018-08-31T00:38:41.974Z,99.90
2018-08-31T00:43:22.546Z,99.90
2018-08-31T00:45:51.006Z,99.90
2018-08-31T00:48:19.494Z,99.90
2018-08-31T00:50:47.975Z,99.90
2018-08-31T00:53:16.425Z,99.90
2018-08-31T00:55:44.882Z,99.90
2018-08-31T00:58:13.366Z,99.90
2018-08-31T01:00:41.927Z,99.90
2018-08-31T01:03:10.486Z,99.90
2018-08-31T01:05:39.042Z,99.90
2018-08-31T01:08:07.502Z,99.90
2018-08-31T01:10:35.942Z,99.90
2018-08-31T01:13:04.430Z,99.90
2018-08-31T01:15:32.930Z,99.90
2018-08-31T01:18:01.446Z,99.90
2018-08-31T01:20:29.970Z,99.90
2018-08-31T01:22:58.466Z,99.90
2018-08-31T01:25:26.965Z,99.90
2018-08-31T01:27:55.522Z,99.90
2018-08-31T01:30:23.982Z,99.90
2018-08-31T01:32:52.461Z,99.90
2018-08-31T01:35:21.006Z,99.90
2018-08-31T01:37:49.470Z,99.90
2018-08-31T01:40:17.939Z,99.90
2018-08-31T01:42:46.437Z,99.90
2018-08-31T01:45:14.898Z,99.90
2018-08-31T01:47:43.421Z,99.90
2018-08-31T01:50:11.946Z,99.90
2018-08-31T01:52:40.521Z,99.90
2018-08-31T01:55:08.994Z,99.90
2018-08-31T01:57:37.622Z,99.90
2018-08-31T02:00:06.164Z,99.90
2018-08-31T02:02:34.633Z,99.90
2018-08-31T02:05:03.162Z,99.90
2018-08-31T02:07:31.721Z,99.90
2018-08-31T02:10:00.182Z,99.90
2018-08-31T02:12:28.705Z,99.90
2018-08-31T02:14:57.173Z,99.90
2018-08-31T02:17:25.688Z,99.90
2018-08-31T02:19:54.170Z,99.90
2018-08-31T02:22:22.646Z,99.90
2018-08-31T02:24:51.130Z,99.90
2018-08-31T02:27:19.647Z,99.90
2018-08-31T02:29:48.127Z,99.90
2018-08-31T02:32:16.593Z,99.90
2018-08-31T02:34:45.134Z,99.90
2018-08-31T02:37:13.630Z,99.90
2018-08-31T02:39:42.116Z,99.90
2018-08-31T02:42:10.623Z,99.90
2018-08-31T02:44:39.121Z,99.90
2018-08-31T02:47:07.630Z,99.90
2018-08-31T02:49:36.138Z,99.90
2018-08-31T02:52:04.622Z,99.90
2018-08-31T02:54:33.075Z,99.90
2018-08-31T02:57:01.600Z,99.90
2018-08-31T02:59:30.058Z,99.90
2018-08-31T03:01:58.508Z,99.90
2018-08-31T03:04:27.053Z,99.90
2018-08-31T03:06:55.498Z,99.90
2018-08-31T03:09:23.950Z,99.90
2018-08-31T03:11:52.494Z,99.90
2018-08-31T03:14:20.942Z,99.90
2018-08-31T03:16:49.426Z,99.90
2018-08-31T03:19:17.974Z,99.90
2018-08-31T03:21:46.442Z,99.90
2018-08-31T03:24:14.938Z,99.90
2018-08-31T03:26:43.418Z,99.90
2018-08-31T03:29:11.874Z,99.90
2018-08-31T03:31:40.340Z,99.90
2018-08-31T03:34:09.350Z,99.90
2018-08-31T03:36:37.818Z,99.90
2018-08-31T03:39:08.182Z,99.90
2018-08-31T03:41:36.938Z,99.90
2018-08-31T03:44:05.633Z,99.90
2018-08-31T03:46:34.110Z,99.90
2018-08-31T03:49:02.599Z,99.90
2018-08-31T03:51:31.096Z,99.90
2018-08-31T03:53:59.602Z,99.90
2018-08-31T03:56:28.070Z,99.90
2018-08-31T03:58:56.518Z,99.90
2018-08-31T04:01:24.976Z,99.90
2018-08-31T04:03:53.506Z,99.90
2018-08-31T04:06:22.046Z,99.90
2018-08-31T04:08:50.466Z,99.90
2018-08-31T04:11:19.197Z,99.90
2018-08-31T04:13:47.668Z,99.90
2018-08-31T04:16:16.145Z,99.90
2018-08-31T04:18:44.632Z,99.90
2018-08-31T04:21:13.116Z,99.90
2018-08-31T04:23:41.594Z,99.90
2018-08-31T04:26:10.102Z,99.90
2018-08-31T04:28:38.556Z,99.90
2018-08-31T04:31:07.015Z,99.90
2018-08-31T04:33:35.519Z,99.90
2018-08-31T04:36:04.000Z,99.90
2018-08-31T04:38:32.449Z,99.90
2018-08-31T04:41:01.011Z,99.90
2018-08-31T04:43:29.442Z,99.90
2018-08-31T04:45:57.882Z,99.90
2018-08-31T04:48:26.386Z,99.90
2018-08-31T04:50:54.867Z,99.90
2018-08-31T04:53:23.324Z,99.90
2018-08-31T04:55:51.811Z,99.90
2018-08-31T04:58:20.242Z,99.90
2018-08-31T05:00:48.674Z,99.90
2018-08-31T05:03:17.247Z,99.90
2018-08-31T05:05:45.746Z,99.90
2018-08-31T05:08:14.202Z,99.90
2018-08-31T05:10:42.712Z,99.90
2018-08-31T05:13:11.167Z,99.90
2018-08-31T05:15:39.606Z,99.90
2018-08-31T05:18:08.098Z,99.90
2018-08-31T05:20:36.557Z,99.90
2018-08-31T05:23:05.152Z,99.90
2018-08-31T05:25:33.650Z,99.90
2018-08-31T05:28:02.154Z,99.90
2018-08-31T05:30:30.615Z,99.90
2018-08-31T05:32:59.286Z,99.90
2018-08-31T05:35:27.754Z,99.90
2018-08-31T05:37:56.218Z,99.90
2018-08-31T05:40:24.726Z,99.90
2018-08-31T05:42:53.207Z,99.90
2018-08-31T05:45:22.319Z,99.90
2018-08-31T05:47:50.852Z,99.90
2018-08-31T05:50:19.375Z,99.90
2018-08-31T05:52:47.854Z,99.90
2018-08-31T05:55:16.599Z,99.90
2018-08-31T05:57:45.118Z,99.90
2018-08-31T06:00:13.583Z,99.90
2018-08-31T06:02:42.063Z,99.90
2018-08-31T06:05:10.530Z,99.90
2018-08-31T06:07:38.970Z,99.90
2018-08-31T06:10:08.362Z,99.90
2018-08-31T06:12:36.843Z,99.90
2018-08-31T06:15:05.462Z,99.90
2018-08-31T06:17:33.958Z,99.90
2018-08-31T06:20:03.090Z,99.90
2018-08-31T06:22:31.610Z,99.90
2018-08-31T06:25:00.190Z,99.90
2018-08-31T06:27:28.658Z,99.90
2018-08-31T06:29:57.117Z,99.90
2018-08-31T06:32:25.654Z,99.90
2018-08-31T06:34:54.130Z,99.90
2018-08-31T06:37:22.590Z,99.90
2018-08-31T06:39:51.163Z,99.90
2018-08-31T06:42:19.621Z,99.90
2018-08-31T06:44:48.079Z,99.90
2018-08-31T06:47:16.599Z,99.90
2018-08-31T06:49:45.054Z,99.90
2018-08-31T06:52:13.534Z,99.90
2018-08-31T06:54:42.058Z,99.90
2018-08-31T06:57:10.514Z,99.90
2018-08-31T06:59:38.973Z,99.90
2018-08-31T07:02:07.499Z,99.90
2018-08-31T07:04:35.992Z,99.90
2018-08-31T07:07:04.505Z,99.90
2018-08-31T07:09:32.986Z,99.90
2018-08-31T07:12:01.442Z,99.90
2018-08-31T07:14:29.915Z,99.90
2018-08-31T07:16:58.420Z,99.90
2018-08-31T07:19:26.950Z,99.90
2018-08-31T07:21:55.345Z,99.90
2018-08-31T07:24:23.947Z,99.90
2018-08-31T07:26:52.531Z,99.90
2018-08-31T07:29:20.999Z,99.90
2018-08-31T07:31:49.484Z,99.90
2018-08-31T07:34:17.935Z,99.90
2018-08-31T07:36:46.412Z,99.90
2018-08-31T07:39:15.026Z,99.90
2018-08-31T07:41:43.510Z,99.90
2018-08-31T07:44:12.002Z,99.90
2018-08-31T07:46:40.543Z,99.90
2018-08-31T07:49:09.042Z,99.90
2018-08-31T07:51:37.570Z,99.90
2018-08-31T07:54:06.199Z,99.90
2018-08-31T07:56:34.661Z,99.90
2018-08-31T07:59:03.274Z,99.90
2018-08-31T08:01:31.846Z,99.90
2018-08-31T08:04:00.315Z,99.90
2018-08-31T08:06:28.773Z,99.90
2018-08-31T08:08:57.298Z,99.90
2018-08-31T08:11:25.781Z,99.90
2018-08-31T08:13:54.250Z,99.90
2018-08-31T08:16:22.939Z,99.90
2018-08-31T08:18:51.482Z,99.90
2018-08-31T08:21:20.004Z,99.90
2018-08-31T08:23:48.984Z,99.90
2018-08-31T08:26:17.447Z,99.90
2018-08-31T08:28:45.886Z,99.90
2018-08-31T08:31:14.418Z,99.90
2018-08-31T08:33:42.893Z,99.90
2018-08-31T08:36:11.382Z,99.90
2018-08-31T08:38:39.875Z,99.90
2018-08-31T08:41:08.358Z,99.90
2018-08-31T08:43:36.860Z,99.90
2018-08-31T08:46:05.354Z,99.90
2018-08-31T08:48:34.011Z,99.90
2018-08-31T08:51:02.376Z,99.90
2018-08-31T08:53:30.862Z,99.90
2018-08-31T08:55:59.374Z,99.90
2018-08-31T08:58:27.828Z,99.90
2018-08-31T09:00:56.388Z,99.90
2018-08-31T09:03:24.854Z,99.90
2018-08-31T09:05:53.654Z,99.90
2018-08-31T09:08:25.971Z,99.90
2018-08-31T09:10:54.401Z,99.90
2018-08-31T09:13:22.955Z,99.90
2018-08-31T09:15:51.442Z,99.90
2018-08-31T09:18:24.572Z,99.90
2018-08-31T09:20:53.078Z,99.90
2018-08-31T09:23:21.546Z,99.90
2018-08-31T09:25:50.046Z,99.90
2018-08-31T09:28:18.622Z,99.90
2018-08-31T09:30:47.338Z,99.90
2018-08-31T09:33:17.200Z,99.90
2018-08-31T09:35:46.897Z,99.90
2018-08-31T09:38:15.423Z,99.90
2018-08-31T09:40:43.854Z,99.90
2018-08-31T09:43:12.366Z,99.90
2018-08-31T09:45:40.816Z,99.90
2018-08-31T09:48:09.776Z,99.90
2018-08-31T09:50:38.353Z,99.90
2018-08-31T09:53:06.862Z,99.90
2018-08-31T09:55:35.497Z,99.90
2018-08-31T09:58:03.983Z,99.90
2018-08-31T10:00:37.642Z,99.90
2018-08-31T10:03:07.662Z,99.90
2018-08-31T10:05:36.102Z,99.90
2018-08-31T10:08:04.594Z,99.90
2018-08-31T10:10:33.099Z,99.90
2018-08-31T10:13:01.542Z,99.90
2018-08-31T10:15:30.013Z,99.90
2018-08-31T10:17:58.520Z,99.90
2018-08-31T10:20:26.992Z,99.90
2018-08-31T10:22:55.455Z,99.90
2018-08-31T10:25:23.929Z,99.90
2018-08-31T10:27:52.402Z,99.90
2018-08-31T10:30:20.883Z,99.90
2018-08-31T10:32:49.415Z,99.90
2018-08-31T10:35:17.913Z,99.90
2018-08-31T10:37:46.514Z,99.90
2018-08-31T10:40:15.064Z,99.90
2018-08-31T10:42:43.590Z,99.90
2018-08-31T10:45:12.062Z,99.90
2018-08-31T10:47:40.591Z,99.90
2018-08-31T10:50:09.694Z,99.90
2018-08-31T10:52:38.186Z,99.90
2018-08-31T10:55:06.802Z,99.90
2018-08-31T10:57:35.465Z,99.90
2018-08-31T11:00:04.254Z,99.90
2018-08-31T11:02:32.770Z,99.90
2018-08-31T11:05:01.317Z,99.90
2018-08-31T11:07:29.773Z,99.90
2018-08-31T11:09:58.279Z,99.90
2018-08-31T11:12:26.788Z,99.90
2018-08-31T11:14:55.286Z,99.90
2018-08-31T11:17:23.879Z,99.90
2018-08-31T11:19:52.366Z,99.90
2018-08-31T11:22:20.838Z,99.90
2018-08-31T11:24:49.355Z,99.90
2018-08-31T11:27:17.849Z,99.90
2018-08-31T11:29:46.359Z,99.90
2018-08-31T11:32:14.874Z,99.90
2018-08-31T11:34:43.366Z,99.90
2018-08-31T11:37:11.843Z,99.90
2018-08-31T11:39:40.375Z,99.90
2018-08-31T11:42:08.837Z,99.70
2018-08-31T11:44:37.318Z,99.90
2018-08-31T11:47:10.814Z,99.90
2018-08-31T11:49:39.302Z,99.90
2018-08-31T11:52:07.802Z,99.90
2018-08-31T11:54:36.362Z,99.90
2018-08-31T11:57:04.842Z,99.90
2018-08-31T11:59:33.298Z,99.90
2018-08-31T12:02:05.678Z,99.90
2018-08-31T12:04:34.079Z,99.90
2018-08-31T12:07:04.325Z,99.90
2018-08-31T12:09:32.993Z,99.90
2018-08-31T12:12:01.909Z,99.90
2018-08-31T12:14:30.338Z,99.90
2018-08-31T12:16:58.862Z,99.90
2018-08-31T12:19:27.347Z,99.20
2018-08-31T12:21:55.810Z,98.00
2018-08-31T12:24:24.335Z,98.90
2018-08-31T12:26:52.819Z,97.20
2018-08-31T12:29:21.264Z,98.60
2018-08-31T12:31:49.747Z,99.90
2018-08-31T12:34:18.261Z,99.10
2018-08-31T12:36:46.745Z,99.70
2018-08-31T12:39:15.314Z,96.50
2018-08-31T12:41:43.758Z,97.20
2018-08-31T12:44:12.239Z,96.70
2018-08-31T12:46:40.679Z,96.90
2018-08-31T12:49:09.101Z,98.80
2018-08-31T12:51:37.542Z,97.40
2018-08-31T12:54:06.043Z,98.50
2018-08-31T12:56:34.550Z,97.20
2018-08-31T12:59:03.039Z,98.10
2018-08-31T13:01:31.551Z,99.40
2018-08-31T13:04:00.043Z,99.20
2018-08-31T13:06:28.570Z,99.50
2018-08-31T13:08:57.090Z,96.70
2018-08-31T13:11:25.529Z,99.10
2018-08-31T13:13:53.986Z,99.80
2018-08-31T13:16:22.478Z,99.90
2018-08-31T13:18:50.922Z,97.50
2018-08-31T13:21:19.366Z,96.50
2018-08-31T13:23:47.852Z,97.50
2018-08-31T13:26:16.362Z,97.90
2018-08-31T13:28:44.814Z,95.60
2018-08-31T13:31:13.399Z,95.30
2018-08-31T13:33:41.751Z,96.10
2018-08-31T13:36:10.202Z,96.80
2018-08-31T13:38:38.718Z,96.40
2018-08-31T13:41:07.186Z,96.70
2018-08-31T13:43:35.655Z,97.60
2018-08-31T13:46:04.211Z,93.70
2018-08-31T13:48:32.671Z,93.70
2018-08-31T13:51:01.133Z,96.30
2018-08-31T13:53:29.662Z,97.30
2018-08-31T13:55:58.121Z,96.80
2018-08-31T13:58:26.719Z,97.90
2018-08-31T14:00:55.130Z,98.60
2018-08-31T14:03:23.581Z,98.30
2018-08-31T14:05:52.022Z,99.90
2018-08-31T14:08:20.554Z,99.90
2018-08-31T14:10:49.042Z,99.00
2018-08-31T14:13:17.511Z,99.80
2018-08-31T14:15:46.073Z,99.90
2018-08-31T14:18:14.563Z,99.90
2018-08-31T14:20:43.044Z,99.90
2018-08-31T14:23:11.558Z,99.90
2018-08-31T14:25:40.018Z,99.90
2018-08-31T14:28:08.578Z,99.90
2018-08-31T14:30:37.242Z,99.90
2018-08-31T14:33:05.752Z,99.90
2018-08-31T14:35:34.305Z,99.30
2018-08-31T14:38:02.794Z,99.50
2018-08-31T14:40:31.230Z,97.00
2018-08-31T14:42:59.662Z,96.60
2018-08-31T14:45:28.170Z,96.70
2018-08-31T14:47:56.599Z,96.40
2018-08-31T14:50:25.234Z,96.10
2018-08-31T14:52:53.709Z,97.10
2018-08-31T14:55:22.202Z,95.30
2018-08-31T14:57:52.862Z,96.20
2018-08-31T15:00:22.695Z,97.20
2018-08-31T15:02:53.388Z,98.80
2018-08-31T15:05:22.705Z,97.50
2018-08-31T15:07:53.648Z,98.40
2018-08-31T15:10:22.165Z,99.40
2018-08-31T15:12:50.696Z,99.70
2018-08-31T15:15:19.202Z,99.90
2018-08-31T15:17:47.716Z,99.90
2018-08-31T15:20:16.338Z,99.90
2018-08-31T15:22:44.860Z,99.90
2018-08-31T15:25:13.404Z,99.90
2018-08-31T15:27:41.907Z,99.90
2018-08-31T15:30:10.558Z,99.90
2018-08-31T15:32:39.047Z,99.90
2018-08-31T15:35:07.547Z,99.90
2018-08-31T15:37:36.097Z,99.90
2018-08-31T15:40:04.690Z,99.90
2018-08-31T15:42:33.183Z,99.90
2018-08-31T15:45:01.798Z,99.90
2018-08-31T15:47:30.267Z,99.90
2018-08-31T15:49:58.787Z,99.90
2018-08-31T15:52:27.387Z,99.90
2018-08-31T15:54:55.956Z,99.90
2018-08-31T15:57:24.420Z,99.90
2018-08-31T15:59:52.912Z,99.90
2018-08-31T16:02:21.432Z,99.90
2018-08-31T16:04:49.906Z,99.90
2018-08-31T16:07:18.387Z,99.90
2018-08-31T16:09:46.934Z,99.90
2018-08-31T16:12:15.438Z,99.90
2018-08-31T16:14:43.942Z,99.90
2018-08-31T16:17:12.456Z,99.90
2018-08-31T16:19:43.324Z,99.90
2018-08-31T16:22:11.910Z,99.90
2018-08-31T16:24:40.400Z,99.90
2018-08-31T16:27:08.886Z,99.90
2018-08-31T16:29:37.443Z,99.90
2018-08-31T16:32:05.938Z,99.90
2018-08-31T16:34:34.446Z,99.90
2018-08-31T16:37:02.967Z,99.90
2018-08-31T16:39:31.461Z,99.90
2018-08-31T16:41:59.942Z,99.90
2018-08-31T16:44:28.466Z,99.90
2018-08-31T16:46:56.930Z,99.90
2018-08-31T16:49:25.398Z,99.90
2018-08-31T16:51:53.939Z,99.90
2018-08-31T16:54:22.459Z,99.90
2018-08-31T16:56:50.919Z,99.90
2018-08-31T16:59:19.570Z,99.90
2018-08-31T17:01:48.075Z,99.90
2018-08-31T17:04:16.542Z,99.90
2018-08-31T17:06:45.107Z,99.90
2018-08-31T17:09:13.739Z,99.90
2018-08-31T17:11:42.442Z,99.90
2018-08-31T17:14:11.042Z,99.90
2018-08-31T17:16:39.706Z,99.90
2018-08-31T17:19:08.155Z,99.90
2018-08-31T17:21:36.696Z,99.90
2018-08-31T17:24:05.303Z,99.90
2018-08-31T17:26:39.067Z,99.90
2018-08-31T17:29:12.674Z,99.90
2018-08-31T17:31:46.506Z,99.90
2018-08-31T17:34:20.239Z,99.90
2018-08-31T17:36:54.238Z,99.90
2018-08-31T17:39:22.713Z,99.90
2018-08-31T17:41:51.270Z,99.90
2018-08-31T17:44:19.818Z,99.90
2018-08-31T17:46:48.332Z,99.90
2018-08-31T17:49:16.831Z,99.90
2018-08-31T17:51:45.338Z,99.90
2018-08-31T17:54:13.827Z,99.90
2018-08-31T17:56:42.304Z,99.90
2018-08-31T17:59:10.827Z,99.90
2018-08-31T18:01:39.316Z,99.90
2018-08-31T18:04:07.796Z,99.90
2018-08-31T18:06:36.325Z,99.90
2018-08-31T18:09:05.616Z,99.90
2018-08-31T18:11:34.066Z,99.90
2018-08-31T18:14:02.701Z,99.90
2018-08-31T18:16:31.238Z,99.90
2018-08-31T18:18:59.641Z,99.90
2018-08-31T18:21:28.154Z,99.90
2018-08-31T18:23:56.646Z,99.90
2018-08-31T18:26:25.114Z,99.90
2018-08-31T18:28:53.631Z,99.90
2018-08-31T18:31:22.095Z,99.90
2018-08-31T18:33:50.583Z,99.90
2018-08-31T18:36:19.153Z,99.90
2018-08-31T18:38:47.662Z,99.90
2018-08-31T18:41:16.118Z,99.90
2018-08-31T18:43:44.626Z,99.90
2018-08-31T18:46:13.090Z,99.90
2018-08-31T18:48:41.559Z,99.90
2018-08-31T18:51:10.150Z,99.90
2018-08-31T18:53:38.716Z,99.90
2018-08-31T18:56:07.320Z,99.90
2018-08-31T18:58:35.927Z,99.90
2018-08-31T19:01:04.414Z,99.90
2018-08-31T19:03:32.871Z,99.90
2018-08-31T19:06:01.381Z,99.90
2018-08-31T19:08:29.854Z,99.90
2018-08-31T19:10:58.369Z,99.90
2018-08-31T19:13:26.906Z,99.90
2018-08-31T19:15:55.373Z,99.90
2018-08-31T19:18:24.256Z,99.90
2018-08-31T19:20:52.915Z,99.90
2018-08-31T19:23:21.402Z,99.90
2018-08-31T19:25:49.879Z,99.90
2018-08-31T19:28:18.370Z,99.90
2018-08-31T19:30:46.830Z,99.90
2018-08-31T19:33:15.394Z,99.90
2018-08-31T19:35:44.006Z,99.90
2018-08-31T19:38:12.486Z,99.90
2018-08-31T19:40:41.994Z,99.90
2018-08-31T19:43:10.515Z,99.90
2018-08-31T19:45:39.078Z,99.90
2018-08-31T19:48:07.562Z,99.90
2018-08-31T19:50:36.083Z,99.90
2018-08-31T19:53:04.538Z,99.90
2018-08-31T19:55:32.990Z,99.90
2018-08-31T19:58:01.470Z,99.90
2018-08-31T20:00:29.929Z,99.90
2018-08-31T20:02:58.369Z,99.90
2018-08-31T20:05:26.910Z,99.90
2018-08-31T20:07:55.386Z,99.90
2018-08-31T20:10:23.833Z,99.90
2018-08-31T20:12:52.318Z,99.90
2018-08-31T20:15:20.783Z,99.90
2018-08-31T20:17:50.119Z,99.90
2018-08-31T20:20:18.582Z,99.90
2018-08-31T20:22:46.993Z,99.90
2018-08-31T20:25:15.414Z,99.90
2018-08-31T20:27:43.878Z,99.90
2018-08-31T20:30:12.424Z,99.90
2018-08-31T20:32:40.924Z,99.90
2018-08-31T20:35:09.519Z,99.90
2018-08-31T20:37:38.084Z,99.90
2018-08-31T20:40:06.850Z,99.90
2018-08-31T20:42:35.347Z,99.90
2018-08-31T20:45:04.026Z,99.90
2018-08-31T20:47:32.567Z,99.90
2018-08-31T20:50:01.082Z,99.90
2018-08-31T20:52:29.536Z,99.90
2018-08-31T20:54:58.056Z,99.90
2018-08-31T20:57:26.674Z,99.90
2018-08-31T20:59:55.661Z,99.90
2018-08-31T21:02:24.110Z,99.90
2018-08-31T21:04:52.671Z,99.90
2018-08-31T21:07:21.118Z,99.90
2018-08-31T21:09:49.586Z,99.90
2018-08-31T21:12:18.228Z,99.90
2018-08-31T21:14:46.682Z,99.90
2018-08-31T21:17:15.151Z,99.90
2018-08-31T21:19:43.633Z,99.90
2018-08-31T21:22:13.082Z,99.90
2018-08-31T21:24:41.522Z,99.90
2018-08-31T21:27:10.001Z,99.90
2018-08-31T21:29:38.483Z,99.90
2018-08-31T21:32:07.385Z,99.90
2018-08-31T21:34:35.858Z,99.90
2018-08-31T21:37:04.320Z,99.90
2018-08-31T21:39:32.766Z,99.90
2018-08-31T21:42:02.344Z,99.90
2018-08-31T21:44:30.790Z,99.90
2018-08-31T21:46:59.264Z,99.90
2018-08-31T21:49:28.114Z,99.90
2018-08-31T21:51:56.603Z,99.90
2018-08-31T21:54:25.098Z,99.90
2018-08-31T21:56:53.630Z,99.90
2018-08-31T21:59:22.067Z,99.90
2018-08-31T22:01:53.511Z,99.90
2018-08-31T22:04:22.305Z,99.90
2018-08-31T22:06:50.815Z,99.90
2018-08-31T22:09:19.326Z,99.90
2018-08-31T22:11:47.905Z,99.90
2018-08-31T22:14:16.346Z,99.90
2018-08-31T22:16:44.939Z,99.90
2018-08-31T22:19:13.446Z,99.90
2018-08-31T22:21:41.900Z,99.90
2018-08-31T22:24:10.341Z,99.90
2018-08-31T22:26:38.931Z,99.90
2018-08-31T22:29:07.488Z,99.90
2018-08-31T22:31:36.011Z,99.90
2018-08-31T22:34:04.546Z,99.90
2018-08-31T22:36:33.002Z,99.90
2018-08-31T22:39:01.441Z,99.90
2018-08-31T22:41:30.015Z,99.90
2018-08-31T22:43:58.517Z,99.90
2018-08-31T22:46:27.066Z,99.90
2018-08-31T22:48:55.577Z,99.90
2018-08-31T22:51:24.085Z,99.90
2018-08-31T22:53:52.590Z,99.90
2018-08-31T22:56:21.178Z,99.90
2018-08-31T22:58:49.634Z,99.90
2018-08-31T23:01:18.111Z,99.90
2018-08-31T23:03:46.603Z,99.90
2018-08-31T23:06:15.062Z,99.90
2018-08-31T23:08:43.528Z,99.90
2018-08-31T23:11:12.548Z,99.90
2018-08-31T23:13:42.852Z,99.90
2018-08-31T23:16:11.276Z,99.90
2018-08-31T23:18:40.079Z,99.90
2018-08-31T23:21:09.266Z,99.90
2018-08-31T23:23:42.975Z,99.90
2018-08-31T23:26:11.443Z,99.90
2018-08-31T23:28:39.920Z,99.90
2018-08-31T23:31:08.426Z,99.90
2018-08-31T23:33:36.958Z,99.90
2018-08-31T23:36:05.454Z,99.90
2018-08-31T23:38:34.201Z,99.90
2018-08-31T23:41:02.658Z,99.90
2018-08-31T23:43:31.146Z,99.90
2018-08-31T23:45:59.674Z,99.90
2018-08-31T23:48:28.130Z,99.90
2018-08-31T23:50:56.578Z,99.90
2018-08-31T23:53:25.075Z,99.90
2018-08-31T23:55:53.559Z,99.90
2018-08-31T23:58:22.042Z,99.90
